createdAt,value
2023-03-31T00:00:04.371Z,94646.13
2023-03-31T00:01:01.186Z,94596.91
2023-03-31T00:01:58.068Z,94614.88
2023-03-31T00:02:56.314Z,94641.38
2023-03-31T00:04:02.243Z,94518.63
2023-03-31T00:05:00.219Z,94638.78
2023-03-31T00:05:59.701Z,94645.66
2023-03-31T00:06:56.525Z,94513.91
2023-03-31T00:08:01.178Z,94644.38
2023-03-31T00:09:01.998Z,94640.09
2023-03-31T00:10:16.691Z,94641.84
2023-03-31T00:11:14.894Z,94597.16
2023-03-31T00:12:15.965Z,94606.47
2023-03-31T00:13:13.747Z,94619.63
2023-03-31T00:14:10.974Z,94582.47
2023-03-31T00:15:08.221Z,94533.94
2023-03-31T00:16:09.058Z,94545.91
2023-03-31T00:17:06.421Z,94576.34
2023-03-31T00:18:04.183Z,94633.03
2023-03-31T00:19:02.167Z,94571.28
2023-03-31T00:20:01.066Z,94624.84
2023-03-31T00:21:24.764Z,94606.38
2023-03-31T00:22:22.800Z,94603.03
2023-03-31T00:23:28.047Z,94628.72
2023-03-31T00:24:24.837Z,94610.16
2023-03-31T00:25:21.700Z,94624.56
2023-03-31T00:26:18.476Z,94626.47
2023-03-31T00:27:15.715Z,94594.88
2023-03-31T00:28:12.472Z,94628.53
2023-03-31T00:29:12.067Z,94578.53
2023-03-31T00:30:09.263Z,94630.13
2023-03-31T00:31:06.288Z,94589.88
2023-03-31T00:32:03.115Z,94627.94
2023-03-31T00:33:00.825Z,94592.22
2023-03-31T00:33:58.118Z,94571.66
2023-03-31T00:34:54.889Z,94631.38
2023-03-31T00:35:52.660Z,94623.56
2023-03-31T00:36:50.078Z,94615.22
2023-03-31T00:37:47.336Z,94621.16
2023-03-31T00:38:46.416Z,94590.78
2023-03-31T00:39:43.416Z,94620.38
2023-03-31T00:40:46.314Z,94608.28
2023-03-31T00:41:44.196Z,94608.56
2023-03-31T00:42:42.665Z,94615.22
2023-03-31T00:43:41.045Z,94595.25
2023-03-31T00:45:16.588Z,94614.41
2023-03-31T00:46:27.777Z,94576.34
2023-03-31T00:47:29.970Z,94611.13
2023-03-31T00:48:27.744Z,94565.97
2023-03-31T00:49:47.377Z,94606.00
2023-03-31T00:50:53.648Z,94608.66
2023-03-31T00:51:55.281Z,94611.41
2023-03-31T00:53:00.633Z,94607.25
2023-03-31T00:54:05.056Z,94606.00
2023-03-31T00:55:10.120Z,94606.81
2023-03-31T00:56:12.926Z,94597.66
2023-03-31T00:57:12.014Z,94607.56
2023-03-31T00:58:14.638Z,94599.19
2023-03-31T00:59:13.347Z,94606.06
2023-03-31T01:00:16.934Z,94598.97
2023-03-31T01:01:19.376Z,94602.16
2023-03-31T01:02:20.797Z,94601.78
2023-03-31T01:03:18.572Z,94592.38
2023-03-31T01:04:16.741Z,94564.66
2023-03-31T01:05:13.550Z,94596.78
2023-03-31T01:06:10.662Z,94577.28
2023-03-31T01:07:18.548Z,94597.88
2023-03-31T01:08:18.943Z,94602.44
2023-03-31T01:09:17.138Z,94606.25
2023-03-31T01:10:14.472Z,94560.97
2023-03-31T01:11:16.493Z,94593.22
2023-03-31T01:12:17.915Z,94591.84
2023-03-31T01:13:17.021Z,94586.97
2023-03-31T01:14:14.831Z,94573.75
2023-03-31T01:15:11.961Z,94556.19
2023-03-31T01:16:09.310Z,94595.75
2023-03-31T01:17:09.951Z,94588.19
2023-03-31T01:18:07.604Z,94596.06
2023-03-31T01:19:04.487Z,94596.50
2023-03-31T01:20:28.825Z,94595.00
2023-03-31T01:22:03.925Z,94594.53
2023-03-31T01:23:28.013Z,94597.56
2023-03-31T01:24:27.608Z,94596.22
2023-03-31T01:25:58.419Z,94541.75
2023-03-31T01:27:37.373Z,94596.91
2023-03-31T01:28:52.374Z,94594.38
2023-03-31T01:30:25.980Z,94492.28
2023-03-31T01:31:44.271Z,94600.28
2023-03-31T01:32:43.805Z,94605.66
2023-03-31T01:34:16.560Z,94602.91
2023-03-31T01:35:37.627Z,94608.41
2023-03-31T01:36:59.093Z,94613.47
2023-03-31T01:38:16.068Z,94605.44
2023-03-31T01:39:30.930Z,94618.19
2023-03-31T01:40:51.815Z,94611.53
2023-03-31T01:42:26.430Z,94617.69
2023-03-31T01:43:23.143Z,94618.75
2023-03-31T01:44:57.511Z,94617.50
2023-03-31T01:45:54.388Z,94624.94
2023-03-31T01:46:56.765Z,94618.97
2023-03-31T01:48:18.222Z,94625.84
2023-03-31T01:49:38.897Z,94520.19
2023-03-31T01:50:38.475Z,94627.78
2023-03-31T01:52:07.252Z,94627.47
2023-03-31T01:53:12.522Z,94630.31
2023-03-31T01:54:54.514Z,94631.56
2023-03-31T01:56:19.833Z,94625.16
2023-03-31T01:57:28.991Z,94608.53
2023-03-31T01:58:43.131Z,94631.28
2023-03-31T02:00:09.681Z,94627.28
2023-03-31T02:01:19.818Z,94617.44
2023-03-31T02:02:32.710Z,94610.41
2023-03-31T02:03:45.606Z,94527.34
2023-03-31T02:04:57.158Z,94642.22
2023-03-31T02:05:59.817Z,94615.03
2023-03-31T02:07:19.100Z,94637.59
2023-03-31T02:08:25.024Z,94624.78
2023-03-31T02:09:28.584Z,94642.22
2023-03-31T02:10:30.874Z,94642.50
2023-03-31T02:11:30.384Z,94586.84
2023-03-31T02:12:32.576Z,94644.59
2023-03-31T02:13:34.551Z,94645.38
2023-03-31T02:14:33.691Z,94648.03
2023-03-31T02:15:39.066Z,94595.00
2023-03-31T02:16:42.020Z,94660.00
2023-03-31T02:18:48.329Z,94650.22
2023-03-31T02:19:51.574Z,94613.72
2023-03-31T02:20:52.598Z,94611.50
2023-03-31T02:21:51.132Z,94632.50
2023-03-31T02:22:54.476Z,94662.41
2023-03-31T02:23:52.424Z,94602.13
2023-03-31T02:24:53.121Z,94669.06
2023-03-31T02:26:08.536Z,94653.13
2023-03-31T02:27:31.111Z,94667.56
2023-03-31T02:28:29.456Z,94614.28
2023-03-31T02:29:26.351Z,94689.38
2023-03-31T02:30:25.507Z,94682.16
2023-03-31T02:31:40.977Z,94670.09
2023-03-31T02:32:41.180Z,94686.06
2023-03-31T02:33:38.384Z,94682.75
2023-03-31T02:34:35.964Z,94684.81
2023-03-31T02:35:34.938Z,94681.34
2023-03-31T02:36:34.641Z,94601.09
2023-03-31T02:37:32.000Z,94647.63
2023-03-31T02:38:38.188Z,94619.78
2023-03-31T02:39:39.512Z,94680.31
2023-03-31T02:40:36.223Z,94613.81
2023-03-31T02:41:33.437Z,94672.06
2023-03-31T02:42:30.572Z,94674.47
2023-03-31T02:43:27.380Z,94683.50
2023-03-31T02:44:25.053Z,94682.38
2023-03-31T02:45:49.699Z,94679.44
2023-03-31T02:46:48.137Z,94607.66
2023-03-31T02:47:44.977Z,94631.00
2023-03-31T02:48:48.694Z,94636.94
2023-03-31T02:49:51.603Z,94633.34
2023-03-31T02:50:51.303Z,94662.03
2023-03-31T02:51:59.297Z,94659.13
2023-03-31T02:53:17.318Z,94658.63
2023-03-31T02:54:23.011Z,94655.00
2023-03-31T02:55:40.623Z,94651.63
2023-03-31T02:57:20.118Z,94650.69
2023-03-31T02:58:36.343Z,94637.19
2023-03-31T02:59:38.828Z,94638.31
2023-03-31T03:00:35.565Z,94643.59
2023-03-31T03:02:10.857Z,94631.56
2023-03-31T03:03:16.294Z,94637.75
2023-03-31T03:04:37.141Z,94638.81
2023-03-31T03:05:46.012Z,94639.03
2023-03-31T03:06:57.558Z,94637.75
2023-03-31T03:08:12.876Z,94634.06
2023-03-31T03:09:30.072Z,94622.78
2023-03-31T03:10:36.689Z,94625.03
2023-03-31T03:12:07.936Z,94578.94
2023-03-31T03:13:16.581Z,94583.66
2023-03-31T03:14:40.850Z,94607.16
2023-03-31T03:15:49.720Z,94608.84
2023-03-31T03:16:57.391Z,94566.38
2023-03-31T03:17:56.967Z,94571.56
2023-03-31T03:18:59.068Z,94565.97
2023-03-31T03:20:00.823Z,94579.56
2023-03-31T03:20:57.813Z,94610.81
2023-03-31T03:21:54.692Z,94571.81
2023-03-31T03:22:51.682Z,94614.25
2023-03-31T03:23:48.428Z,94609.59
2023-03-31T03:24:45.151Z,94605.31
2023-03-31T03:25:42.142Z,94607.84
2023-03-31T03:26:38.924Z,94488.94
2023-03-31T03:27:36.501Z,94563.00
2023-03-31T03:28:33.261Z,94607.94
2023-03-31T03:29:30.029Z,94604.91
2023-03-31T03:30:26.773Z,94613.81
2023-03-31T03:31:26.356Z,94576.53
2023-03-31T03:32:23.324Z,94610.91
2023-03-31T03:33:20.100Z,94568.44
2023-03-31T03:34:18.930Z,94611.81
2023-03-31T03:35:15.856Z,94615.94
2023-03-31T03:36:12.973Z,94541.91
2023-03-31T03:37:09.784Z,94609.88
2023-03-31T03:38:06.572Z,94594.03
2023-03-31T03:39:05.039Z,94611.50
2023-03-31T03:40:02.289Z,94569.53
2023-03-31T03:40:59.167Z,94552.38
2023-03-31T03:41:56.278Z,94574.88
2023-03-31T03:42:53.006Z,94604.97
2023-03-31T03:43:49.762Z,94604.75
2023-03-31T03:44:46.547Z,94591.50
2023-03-31T03:45:48.518Z,94601.78
2023-03-31T03:46:45.365Z,94592.38
2023-03-31T03:47:42.287Z,94594.84
2023-03-31T03:48:39.135Z,94594.16
2023-03-31T03:49:36.008Z,94595.34
2023-03-31T03:50:36.295Z,94605.00
2023-03-31T03:51:33.171Z,94597.00
2023-03-31T03:52:29.986Z,94550.69
2023-03-31T03:53:27.775Z,94601.19
2023-03-31T03:54:24.816Z,94597.19
2023-03-31T03:55:21.547Z,94559.44
2023-03-31T03:56:18.341Z,94593.13
2023-03-31T03:57:15.638Z,94549.25
2023-03-31T03:58:12.530Z,94585.06
2023-03-31T03:59:10.618Z,94610.06
2023-03-31T04:00:12.668Z,94602.47
2023-03-31T04:02:20.428Z,94504.09
2023-03-31T04:03:19.892Z,94625.69
2023-03-31T04:04:16.706Z,94603.56
2023-03-31T04:05:13.587Z,94579.63
2023-03-31T04:06:10.940Z,94578.97
2023-03-31T04:07:07.852Z,94591.06
2023-03-31T04:08:06.257Z,94463.41
2023-03-31T04:09:04.121Z,94573.69
2023-03-31T04:10:01.018Z,94542.41
2023-03-31T04:10:57.868Z,94545.75
2023-03-31T04:11:54.648Z,94622.50
2023-03-31T04:12:51.525Z,94571.06
2023-03-31T04:13:48.377Z,94554.63
2023-03-31T04:14:45.294Z,94616.91
2023-03-31T04:15:42.870Z,94571.75
2023-03-31T04:16:40.600Z,94617.88
2023-03-31T04:17:37.809Z,94620.22
2023-03-31T04:18:37.135Z,94618.09
2023-03-31T04:19:34.686Z,94566.53
2023-03-31T04:20:31.903Z,94551.63
2023-03-31T04:21:30.736Z,94620.41
2023-03-31T04:22:35.282Z,94602.69
2023-03-31T04:23:46.273Z,94613.19
2023-03-31T04:24:46.652Z,94613.41
2023-03-31T04:25:46.386Z,94616.28
2023-03-31T04:26:43.582Z,94557.63
2023-03-31T04:27:54.707Z,94615.22
2023-03-31T04:28:51.721Z,94613.69
2023-03-31T04:29:54.770Z,94515.09
2023-03-31T04:30:51.590Z,94610.44
2023-03-31T04:31:50.988Z,94608.16
2023-03-31T04:32:50.741Z,94600.13
2023-03-31T04:33:48.090Z,94606.78
2023-03-31T04:34:46.528Z,94615.97
2023-03-31T04:35:52.745Z,94603.09
2023-03-31T04:36:50.404Z,94582.59
2023-03-31T04:37:48.556Z,94573.53
2023-03-31T04:38:47.001Z,94581.06
2023-03-31T04:39:46.809Z,94599.69
2023-03-31T04:40:43.558Z,94482.78
2023-03-31T04:41:40.374Z,94584.63
2023-03-31T04:42:37.256Z,94552.44
2023-03-31T04:43:33.976Z,94593.41
2023-03-31T04:44:30.706Z,94537.91
2023-03-31T04:45:27.618Z,94463.28
2023-03-31T04:46:25.586Z,94598.91
2023-03-31T04:47:22.519Z,94593.22
2023-03-31T04:48:19.281Z,94544.25
2023-03-31T04:49:16.053Z,94590.38
2023-03-31T04:50:16.176Z,94470.59
2023-03-31T04:51:15.543Z,94587.09
2023-03-31T04:52:12.404Z,94539.09
2023-03-31T04:53:09.274Z,94553.53
2023-03-31T04:54:06.128Z,94576.78
2023-03-31T04:55:03.433Z,94585.75
2023-03-31T04:56:00.742Z,94517.59
2023-03-31T04:56:57.544Z,94579.66
2023-03-31T04:57:54.442Z,94581.38
2023-03-31T04:58:51.358Z,94572.78
2023-03-31T04:59:48.146Z,94582.19
2023-03-31T05:00:45.017Z,94580.81
2023-03-31T05:01:45.164Z,94553.41
2023-03-31T05:02:42.096Z,94545.16
2023-03-31T05:03:39.157Z,94584.81
2023-03-31T05:04:36.022Z,94578.38
2023-03-31T05:05:33.349Z,94539.53
2023-03-31T05:06:30.603Z,94449.13
2023-03-31T05:07:27.417Z,94558.34
2023-03-31T05:08:24.229Z,94570.38
2023-03-31T05:09:24.043Z,94558.78
2023-03-31T05:10:21.849Z,94568.16
2023-03-31T05:11:18.615Z,94480.75
2023-03-31T05:12:15.458Z,94563.34
2023-03-31T05:13:12.417Z,94533.56
2023-03-31T05:14:09.230Z,94573.69
2023-03-31T05:15:07.378Z,94466.13
2023-03-31T05:16:15.077Z,94574.38
2023-03-31T05:17:11.847Z,94567.56
2023-03-31T05:18:08.662Z,94549.13
2023-03-31T05:19:05.489Z,94562.78
2023-03-31T05:20:06.184Z,94521.31
2023-03-31T05:21:11.163Z,94509.25
2023-03-31T05:22:07.937Z,94522.44
2023-03-31T05:23:06.711Z,94502.56
2023-03-31T05:24:04.773Z,94569.78
2023-03-31T05:25:01.542Z,94564.41
2023-03-31T05:26:17.147Z,94558.97
2023-03-31T05:27:17.302Z,94564.84
2023-03-31T05:28:14.118Z,94563.63
2023-03-31T05:29:10.913Z,94558.84
2023-03-31T05:30:08.285Z,94560.13
2023-03-31T05:31:06.903Z,94552.66
2023-03-31T05:32:05.801Z,94516.59
2023-03-31T05:33:02.705Z,94554.06
2023-03-31T05:33:59.678Z,94568.44
2023-03-31T05:34:57.854Z,94562.22
2023-03-31T05:35:55.364Z,94551.66
2023-03-31T05:36:54.000Z,94512.75
2023-03-31T05:37:51.248Z,94561.41
2023-03-31T05:38:48.414Z,94541.41
2023-03-31T05:39:45.208Z,94561.88
2023-03-31T05:40:41.945Z,94554.91
2023-03-31T05:41:38.921Z,94552.91
2023-03-31T05:42:36.207Z,94552.34
2023-03-31T05:43:33.367Z,94539.34
2023-03-31T05:44:30.116Z,94554.81
2023-03-31T05:45:27.137Z,94545.59
2023-03-31T05:46:24.260Z,94557.19
2023-03-31T05:47:21.101Z,94551.31
2023-03-31T05:48:19.991Z,94552.09
2023-03-31T05:49:17.479Z,94541.06
2023-03-31T05:50:14.937Z,94564.41
2023-03-31T05:51:11.842Z,94558.38
2023-03-31T05:52:09.553Z,94543.91
2023-03-31T05:53:06.309Z,94557.56
2023-03-31T05:54:03.271Z,94566.13
2023-03-31T05:54:59.997Z,94559.81
2023-03-31T05:56:02.061Z,94543.09
2023-03-31T05:57:07.817Z,94564.91
2023-03-31T05:58:04.964Z,94569.75
2023-03-31T05:59:01.833Z,94571.91
2023-03-31T05:59:58.673Z,94569.38
2023-03-31T06:01:11.645Z,94568.59
2023-03-31T06:02:13.666Z,94571.94
2023-03-31T06:03:10.644Z,94544.31
2023-03-31T06:04:07.428Z,94556.19
2023-03-31T06:05:04.414Z,94521.56
2023-03-31T06:06:02.155Z,94575.00
2023-03-31T06:06:59.908Z,94555.75
2023-03-31T06:07:57.139Z,94567.69
2023-03-31T06:08:54.090Z,94534.22
2023-03-31T06:09:51.564Z,94549.28
2023-03-31T06:10:48.288Z,94525.97
2023-03-31T06:11:45.175Z,94549.50
2023-03-31T06:12:41.957Z,94514.44
2023-03-31T06:13:40.006Z,94544.84
2023-03-31T06:14:36.749Z,94536.75
2023-03-31T06:15:33.609Z,94574.81
2023-03-31T06:16:30.591Z,94573.56
2023-03-31T06:17:27.863Z,94555.06
2023-03-31T06:18:25.049Z,94570.84
2023-03-31T06:19:22.027Z,94560.47
2023-03-31T06:20:27.937Z,94510.50
2023-03-31T06:21:25.327Z,94483.16
2023-03-31T06:22:22.073Z,94567.72
2023-03-31T06:23:18.876Z,94525.28
2023-03-31T06:24:15.708Z,94567.00
2023-03-31T06:25:12.537Z,94572.28
2023-03-31T06:26:09.370Z,94572.44
2023-03-31T06:27:06.976Z,94566.53
2023-03-31T06:28:03.843Z,94565.25
2023-03-31T06:29:00.692Z,94568.44
2023-03-31T06:29:57.448Z,94566.03
2023-03-31T06:31:09.651Z,94570.50
2023-03-31T06:32:06.870Z,94574.75
2023-03-31T06:33:03.890Z,94572.91
2023-03-31T06:34:03.442Z,94518.22
2023-03-31T06:35:00.187Z,94569.41
2023-03-31T06:35:57.694Z,94568.34
2023-03-31T06:36:54.484Z,94572.59
2023-03-31T06:37:51.250Z,94567.41
2023-03-31T06:38:49.833Z,94572.59
2023-03-31T06:39:49.136Z,94576.66
2023-03-31T06:40:46.118Z,94568.59
2023-03-31T06:41:46.123Z,94564.56
2023-03-31T06:42:48.275Z,94549.09
2023-03-31T06:43:54.673Z,94453.28
2023-03-31T06:44:53.259Z,94464.50
2023-03-31T06:45:52.449Z,94576.81
2023-03-31T06:46:50.632Z,94547.25
2023-03-31T06:47:47.512Z,94577.41
2023-03-31T06:48:44.421Z,94581.25
2023-03-31T06:49:41.226Z,94543.91
2023-03-31T06:50:44.876Z,94578.06
2023-03-31T06:51:44.632Z,94571.47
2023-03-31T06:52:41.376Z,94577.09
2023-03-31T06:53:38.112Z,94512.47
2023-03-31T06:54:34.841Z,94579.81
2023-03-31T06:55:34.037Z,94558.84
2023-03-31T06:56:30.812Z,94528.38
2023-03-31T06:57:33.392Z,94554.50
2023-03-31T06:58:32.778Z,94577.47
2023-03-31T06:59:29.545Z,94560.97
2023-03-31T07:00:27.207Z,94462.06
2023-03-31T07:01:24.249Z,94565.63
2023-03-31T07:02:21.186Z,94533.03
2023-03-31T07:03:19.058Z,94517.72
2023-03-31T07:04:16.268Z,94501.63
2023-03-31T07:05:15.640Z,94538.75
2023-03-31T07:06:12.445Z,94530.75
2023-03-31T07:07:09.609Z,94495.53
2023-03-31T07:08:06.576Z,94532.63
2023-03-31T07:09:04.591Z,94527.41
2023-03-31T07:10:01.412Z,94531.56
2023-03-31T07:11:00.863Z,94509.78
2023-03-31T07:11:57.646Z,94500.75
2023-03-31T07:12:54.899Z,94525.56
2023-03-31T07:13:51.636Z,94500.38
2023-03-31T07:14:48.388Z,94496.53
2023-03-31T07:15:48.640Z,94437.22
2023-03-31T07:16:45.465Z,94456.44
2023-03-31T07:17:43.337Z,94502.69
2023-03-31T07:18:42.163Z,94497.25
2023-03-31T07:19:42.289Z,94511.47
2023-03-31T07:20:39.117Z,94507.53
2023-03-31T07:21:35.820Z,94508.16
2023-03-31T07:22:35.176Z,94511.47
2023-03-31T07:23:32.256Z,94512.53
2023-03-31T07:24:30.528Z,94509.88
2023-03-31T07:25:27.265Z,94464.09
2023-03-31T07:26:24.379Z,94509.38
2023-03-31T07:27:25.500Z,94478.63
2023-03-31T07:28:25.843Z,94494.50
2023-03-31T07:29:22.603Z,94497.53
2023-03-31T07:30:20.754Z,94475.38
2023-03-31T07:31:17.977Z,94518.03
2023-03-31T07:32:14.746Z,94515.34
2023-03-31T07:33:11.662Z,94508.53
2023-03-31T07:34:08.620Z,94508.28
2023-03-31T07:35:06.610Z,94464.09
2023-03-31T07:36:12.935Z,94512.91
2023-03-31T07:37:11.130Z,94493.91
2023-03-31T07:38:12.541Z,94506.41
2023-03-31T07:39:09.402Z,94462.72
2023-03-31T07:40:09.967Z,94496.47
2023-03-31T07:41:13.786Z,94467.72
2023-03-31T07:42:10.589Z,94509.28
2023-03-31T07:43:07.970Z,94513.59
2023-03-31T07:44:04.823Z,94513.97
2023-03-31T07:45:02.286Z,94516.22
2023-03-31T07:45:59.056Z,94470.97
2023-03-31T07:47:01.604Z,94521.47
2023-03-31T07:47:58.634Z,94517.50
2023-03-31T07:48:58.331Z,94509.66
2023-03-31T07:49:58.328Z,94514.22
2023-03-31T07:50:55.446Z,94495.63
2023-03-31T07:51:52.196Z,94517.81
2023-03-31T07:52:49.259Z,94520.06
2023-03-31T07:53:49.397Z,94476.47
2023-03-31T07:54:49.692Z,94523.66
2023-03-31T07:55:48.390Z,94530.00
2023-03-31T07:56:45.289Z,94524.94
2023-03-31T07:57:46.420Z,94526.16
2023-03-31T07:58:56.068Z,94524.56
2023-03-31T07:59:55.469Z,94522.59
2023-03-31T08:00:52.181Z,94513.34
2023-03-31T08:01:48.990Z,94513.22
2023-03-31T08:02:46.676Z,94506.88
2023-03-31T08:03:44.987Z,94518.06
2023-03-31T08:04:44.594Z,94512.63
2023-03-31T08:05:41.368Z,94513.44
2023-03-31T08:06:39.404Z,94483.69
2023-03-31T08:07:37.885Z,94481.81
2023-03-31T08:08:34.729Z,94448.31
2023-03-31T08:09:31.598Z,94502.09
2023-03-31T08:10:28.572Z,94503.91
2023-03-31T08:11:26.404Z,94440.78
2023-03-31T08:12:23.144Z,94497.28
2023-03-31T08:13:20.017Z,94499.66
2023-03-31T08:14:21.929Z,94479.94
2023-03-31T08:15:24.648Z,94501.06
2023-03-31T08:16:21.470Z,94500.03
2023-03-31T08:17:18.409Z,94493.97
2023-03-31T08:18:18.047Z,94492.22
2023-03-31T08:19:14.893Z,94452.38
2023-03-31T08:20:11.987Z,94496.97
2023-03-31T08:21:12.222Z,94498.72
2023-03-31T08:22:08.957Z,94467.50
2023-03-31T08:23:09.071Z,94496.78
2023-03-31T08:24:06.261Z,94497.53
2023-03-31T08:25:04.312Z,94489.34
2023-03-31T08:26:13.986Z,94488.41
2023-03-31T08:27:12.654Z,94479.50
2023-03-31T08:28:14.002Z,94490.69
2023-03-31T08:29:10.865Z,94491.50
2023-03-31T08:30:10.606Z,94485.38
2023-03-31T08:31:08.819Z,94485.41
2023-03-31T08:32:07.104Z,94477.22
2023-03-31T08:33:04.272Z,94483.22
2023-03-31T08:34:02.810Z,94485.06
2023-03-31T08:34:59.812Z,94467.03
2023-03-31T08:35:56.714Z,94363.56
2023-03-31T08:36:53.479Z,94472.69
2023-03-31T08:37:50.466Z,94499.56
2023-03-31T08:38:49.462Z,94434.09
2023-03-31T08:39:46.270Z,94493.97
2023-03-31T08:40:43.340Z,94490.84
2023-03-31T08:41:58.751Z,94485.78
2023-03-31T08:43:27.926Z,94484.22
2023-03-31T08:44:49.768Z,94488.47
2023-03-31T08:45:49.679Z,94436.47
2023-03-31T08:46:55.229Z,94495.59
2023-03-31T08:48:17.167Z,94481.53
2023-03-31T08:49:18.471Z,94443.53
2023-03-31T08:50:22.853Z,94469.13
2023-03-31T08:51:27.185Z,94276.91
2023-03-31T08:52:34.677Z,94482.06
2023-03-31T08:53:39.335Z,94390.94
2023-03-31T08:54:41.916Z,94484.94
2023-03-31T08:55:52.237Z,94465.34
2023-03-31T08:56:51.317Z,94453.47
2023-03-31T08:58:05.807Z,94410.16
2023-03-31T08:59:05.586Z,94468.50
2023-03-31T09:00:07.310Z,94454.34
2023-03-31T09:01:19.796Z,94470.09
2023-03-31T09:02:32.113Z,94461.66
2023-03-31T09:03:41.473Z,94440.19
2023-03-31T09:05:07.161Z,94478.00
2023-03-31T09:06:15.348Z,94464.50
2023-03-31T09:07:53.480Z,94460.16
2023-03-31T09:08:55.731Z,94438.34
2023-03-31T09:10:02.002Z,94468.56
2023-03-31T09:11:22.788Z,94458.41
2023-03-31T09:12:29.918Z,94468.69
2023-03-31T09:14:14.681Z,94461.03
2023-03-31T09:15:17.458Z,94452.44
2023-03-31T09:16:37.309Z,94458.59
2023-03-31T09:17:39.961Z,94419.41
2023-03-31T09:18:44.003Z,94456.56
2023-03-31T09:19:51.125Z,94459.66
2023-03-31T09:20:52.879Z,94466.59
2023-03-31T09:21:56.177Z,94400.09
2023-03-31T09:23:20.495Z,94451.13
2023-03-31T09:24:30.930Z,94372.34
2023-03-31T09:25:36.245Z,94416.50
2023-03-31T09:27:01.316Z,94453.19
2023-03-31T09:28:03.440Z,94456.16
2023-03-31T09:29:07.241Z,94428.59
2023-03-31T09:30:12.914Z,94336.75
2023-03-31T09:31:21.016Z,94418.38
2023-03-31T09:32:30.329Z,94457.31
2023-03-31T09:33:34.159Z,94457.88
2023-03-31T09:34:34.722Z,94397.63
2023-03-31T09:35:33.745Z,94418.22
2023-03-31T09:36:30.908Z,94445.25
2023-03-31T09:37:32.986Z,94460.22
2023-03-31T09:38:31.309Z,94395.88
2023-03-31T09:39:28.129Z,94456.47
2023-03-31T09:40:28.655Z,94442.13
2023-03-31T09:41:26.014Z,94408.59
2023-03-31T09:42:25.814Z,94456.25
2023-03-31T09:43:26.192Z,94455.94
2023-03-31T09:44:28.589Z,94409.19
2023-03-31T09:45:28.795Z,94410.25
2023-03-31T09:46:36.005Z,94356.97
2023-03-31T09:47:40.223Z,94384.69
2023-03-31T09:48:40.253Z,94430.72
2023-03-31T09:49:39.081Z,94435.56
2023-03-31T09:50:50.406Z,94420.41
2023-03-31T09:51:55.412Z,94440.34
2023-03-31T09:53:00.800Z,94439.00
2023-03-31T09:54:24.577Z,94433.63
2023-03-31T09:55:44.563Z,94407.84
2023-03-31T09:56:49.215Z,94405.22
2023-03-31T09:57:46.472Z,94413.97
2023-03-31T09:58:48.898Z,94427.75
2023-03-31T09:59:51.851Z,94431.50
2023-03-31T10:01:06.560Z,94427.31
2023-03-31T10:02:35.247Z,94412.94
2023-03-31T10:03:37.327Z,94424.09
2023-03-31T10:04:36.741Z,94418.22
2023-03-31T10:05:37.727Z,94421.44
2023-03-31T10:06:42.251Z,94348.31
2023-03-31T10:07:40.056Z,94413.75
2023-03-31T10:08:47.717Z,94420.13
2023-03-31T10:09:44.712Z,94327.88
2023-03-31T10:10:52.085Z,94401.22
2023-03-31T10:12:20.212Z,94412.41
2023-03-31T10:13:22.570Z,94413.50
2023-03-31T10:14:27.430Z,94407.34
2023-03-31T10:15:28.236Z,94375.44
2023-03-31T10:16:35.213Z,94404.69
2023-03-31T10:17:47.108Z,94409.72
2023-03-31T10:19:11.874Z,94405.47
2023-03-31T10:20:31.332Z,94380.50
2023-03-31T10:21:40.754Z,94384.19
2023-03-31T10:22:45.024Z,94397.50
2023-03-31T10:23:47.835Z,94400.69
2023-03-31T10:24:49.965Z,94398.56
2023-03-31T10:25:48.829Z,94355.78
2023-03-31T10:26:52.352Z,94401.78
2023-03-31T10:27:53.900Z,94390.59
2023-03-31T10:28:53.034Z,94369.31
2023-03-31T10:30:19.166Z,94364.00
2023-03-31T10:31:16.756Z,94377.31
2023-03-31T10:32:23.360Z,94392.47
2023-03-31T10:33:27.292Z,94306.06
2023-03-31T10:34:25.004Z,94393.25
2023-03-31T10:35:24.538Z,94383.94
2023-03-31T10:36:39.141Z,94385.28
2023-03-31T10:37:37.623Z,94389.53
2023-03-31T10:38:46.190Z,94333.16
2023-03-31T10:39:44.598Z,94374.63
2023-03-31T10:40:55.097Z,94301.81
2023-03-31T10:41:53.773Z,94377.81
2023-03-31T10:43:11.003Z,94366.66
2023-03-31T10:44:33.389Z,94377.56
2023-03-31T10:45:38.654Z,94359.78
2023-03-31T10:46:52.938Z,94371.19
2023-03-31T10:47:54.709Z,94325.75
2023-03-31T10:48:51.560Z,94337.16
2023-03-31T10:49:55.899Z,94319.38
2023-03-31T10:51:02.046Z,94341.13
2023-03-31T10:52:01.281Z,94356.28
2023-03-31T10:53:13.560Z,94370.59
2023-03-31T10:54:10.474Z,94369.84
2023-03-31T10:55:17.236Z,94350.72
2023-03-31T10:56:38.425Z,94361.81
2023-03-31T10:57:53.496Z,94370.06
2023-03-31T10:59:06.702Z,94350.19
2023-03-31T11:00:13.717Z,94364.25
2023-03-31T11:01:11.213Z,94371.97
2023-03-31T11:02:17.536Z,94366.13
2023-03-31T11:03:22.340Z,94358.94
2023-03-31T11:05:00.922Z,94360.78
2023-03-31T11:06:22.498Z,94361.91
2023-03-31T11:07:37.532Z,94370.94
2023-03-31T11:08:52.523Z,94359.47
2023-03-31T11:10:04.128Z,94356.56
2023-03-31T11:11:21.689Z,94337.72
2023-03-31T11:12:34.485Z,94326.50
2023-03-31T11:14:03.919Z,94345.91
2023-03-31T11:15:30.342Z,94346.72
2023-03-31T11:16:59.165Z,94331.53
2023-03-31T11:18:17.185Z,94341.94
2023-03-31T11:19:41.146Z,94338.22
2023-03-31T11:20:59.479Z,94345.13
2023-03-31T11:22:26.076Z,94332.09
2023-03-31T11:23:25.502Z,94335.03
2023-03-31T11:24:36.333Z,94296.00
2023-03-31T11:25:39.948Z,94321.78
2023-03-31T11:26:56.166Z,94339.84
2023-03-31T11:28:13.893Z,94323.63
2023-03-31T11:29:37.612Z,94332.13
2023-03-31T11:30:53.409Z,94326.28
2023-03-31T11:32:29.384Z,94327.31
2023-03-31T11:33:30.655Z,94326.78
2023-03-31T11:35:14.544Z,94326.78
2023-03-31T11:36:53.197Z,94328.38
2023-03-31T11:38:23.763Z,94307.66
2023-03-31T11:39:37.862Z,94319.88
2023-03-31T11:40:49.499Z,94313.00
2023-03-31T11:42:01.298Z,94309.25
2023-03-31T11:43:07.361Z,94310.28
2023-03-31T11:44:13.317Z,94314.56
2023-03-31T11:45:41.478Z,94281.66
2023-03-31T11:46:53.090Z,94308.75
2023-03-31T11:47:57.638Z,94304.22
2023-03-31T11:49:27.114Z,94307.41
2023-03-31T11:50:32.979Z,94272.06
2023-03-31T11:51:48.060Z,94299.19
2023-03-31T11:53:01.160Z,94290.69
2023-03-31T11:54:03.867Z,94300.25
2023-03-31T11:55:21.776Z,94293.34
2023-03-31T11:56:24.560Z,94293.34
2023-03-31T11:57:36.439Z,94281.13
2023-03-31T11:58:47.280Z,94257.47
2023-03-31T11:59:54.131Z,94270.22
2023-03-31T12:01:16.926Z,94272.06
2023-03-31T12:02:46.440Z,94278.44
2023-03-31T12:04:11.714Z,94267.22
2023-03-31T12:05:12.973Z,94257.44
2023-03-31T12:06:19.077Z,94273.03
2023-03-31T12:07:45.260Z,94261.88
2023-03-31T12:09:00.556Z,94229.81
2023-03-31T12:10:11.899Z,94218.91
2023-03-31T12:11:36.061Z,94270.59
2023-03-31T12:13:02.527Z,94257.63
2023-03-31T12:14:21.233Z,94268.31
2023-03-31T12:15:30.197Z,94224.22
2023-03-31T12:16:38.960Z,94260.63
2023-03-31T12:17:44.642Z,94260.84
2023-03-31T12:19:17.878Z,94265.09
2023-03-31T12:20:39.750Z,94226.03
2023-03-31T12:21:41.331Z,94187.00
2023-03-31T12:22:44.390Z,94218.66
2023-03-31T12:23:45.712Z,94261.69
2023-03-31T12:24:42.659Z,94225.28
2023-03-31T12:25:50.424Z,94256.63
2023-03-31T12:26:57.676Z,94249.72
2023-03-31T12:27:56.627Z,94198.19
2023-03-31T12:29:00.834Z,94246.50